createdAt,value
2018-04-04T00:00:23.835Z,1.48
2018-04-04T00:01:26.321Z,1.70
2018-04-04T00:02:29.593Z,2.80
2018-04-04T00:03:32.096Z,1.70
2018-04-04T00:04:34.594Z,2.10
2018-04-04T00:05:37.091Z,1.90
2018-04-04T00:06:39.580Z,1.90
2018-04-04T00:07:42.195Z,1.52
2018-04-04T00:08:44.675Z,1.67
2018-04-04T00:09:47.167Z,1.70
2018-04-04T00:10:49.669Z,1.60
2018-04-04T00:11:52.935Z,1.58
2018-04-04T00:12:55.433Z,1.98
2018-04-04T00:13:58.716Z,1.52
2018-04-04T00:15:02.117Z,1.80
2018-04-04T00:16:05.418Z,2.03
2018-04-04T00:17:08.868Z,1.48
2018-04-04T00:18:11.383Z,1.67
2018-04-04T00:19:13.874Z,1.50
2018-04-04T00:20:16.379Z,1.60
2018-04-04T00:21:18.874Z,2.12
2018-04-04T00:22:22.122Z,1.58
2018-04-04T00:23:24.624Z,1.40
2018-04-04T00:24:27.875Z,1.65
2018-04-04T00:25:30.379Z,1.23
2018-04-04T00:26:32.874Z,1.60
2018-04-04T00:27:35.369Z,1.73
2018-04-04T00:28:37.862Z,1.60
2018-04-04T00:29:40.349Z,1.65
2018-04-04T00:30:42.865Z,1.30
2018-04-04T00:31:45.358Z,1.87
2018-04-04T00:32:47.854Z,1.80
2018-04-04T00:33:50.349Z,1.42
2018-04-04T00:34:53.602Z,1.98
2018-04-04T00:35:56.103Z,1.60
2018-04-04T00:36:59.345Z,1.35
2018-04-04T00:38:01.842Z,2.35
2018-04-04T00:39:04.359Z,1.73
2018-04-04T00:40:06.839Z,1.33
2018-04-04T00:41:09.349Z,1.70
2018-04-04T00:42:11.844Z,1.87
2018-04-04T00:43:15.103Z,1.77
2018-04-04T00:44:17.587Z,1.73
2018-04-04T00:45:20.086Z,1.60
2018-04-04T00:46:22.578Z,1.60
2018-04-04T00:47:25.622Z,1.55
2018-04-04T00:48:28.879Z,1.70
2018-04-04T00:49:31.381Z,1.80
2018-04-04T00:50:34.626Z,2.00
2018-04-04T00:51:37.123Z,1.73
2018-04-04T00:52:39.607Z,1.52
2018-04-04T00:53:42.868Z,1.75
2018-04-04T00:54:45.360Z,1.80
2018-04-04T00:55:48.635Z,2.08
2018-04-04T00:56:51.131Z,2.12
2018-04-04T00:57:54.394Z,2.20
2018-04-04T00:58:56.898Z,1.70
2018-04-04T00:59:59.379Z,1.77
2018-04-04T01:01:01.887Z,1.80
2018-04-04T01:02:04.401Z,1.80
2018-04-04T01:03:07.653Z,1.92
2018-04-04T01:04:10.174Z,2.00
2018-04-04T01:05:13.609Z,2.58
2018-04-04T01:06:16.963Z,2.10
2018-04-04T01:07:20.222Z,1.75
2018-04-04T01:08:23.472Z,2.50
2018-04-04T01:09:25.965Z,1.70
2018-04-04T01:10:28.476Z,2.22
2018-04-04T01:11:30.961Z,2.20
2018-04-04T01:12:33.484Z,2.22
2018-04-04T01:13:36.747Z,2.28
2018-04-04T01:14:39.238Z,2.03
2018-04-04T01:15:41.738Z,1.95
2018-04-04T01:16:44.226Z,2.00
2018-04-04T01:17:46.756Z,2.55
2018-04-04T01:18:50.007Z,2.37
2018-04-04T01:19:52.500Z,1.87
2018-04-04T01:20:55.013Z,2.00
2018-04-04T01:21:57.509Z,2.03
2018-04-04T01:23:00.017Z,1.98
2018-04-04T01:24:03.286Z,2.12
2018-04-04T01:25:05.770Z,2.03
2018-04-04T01:26:08.252Z,2.28
2018-04-04T01:27:11.503Z,2.03
2018-04-04T01:28:14.002Z,2.67
2018-04-04T01:29:16.513Z,1.90
2018-04-04T01:30:18.996Z,2.87
2018-04-04T01:31:21.479Z,3.08
2018-04-04T01:32:23.970Z,1.83
2018-04-04T01:33:26.470Z,1.90
2018-04-04T01:34:29.724Z,2.30
2018-04-04T01:35:32.214Z,2.00
2018-04-04T01:36:35.462Z,2.10
2018-04-04T01:37:37.949Z,1.87
2018-04-04T01:38:40.458Z,3.83
2018-04-04T01:39:43.729Z,1.90
2018-04-04T01:40:46.983Z,2.17
2018-04-04T01:41:49.481Z,2.12
2018-04-04T01:42:51.983Z,2.03
2018-04-04T01:43:54.490Z,2.30
2018-04-04T01:44:57.007Z,2.17
2018-04-04T01:46:11.374Z,2.30
2018-04-04T01:47:13.882Z,1.77
2018-04-04T01:48:16.362Z,2.00
2018-04-04T01:49:19.342Z,1.90
2018-04-04T01:50:21.867Z,2.25
2018-04-04T01:51:24.348Z,2.00
2018-04-04T01:52:26.848Z,2.60
2018-04-04T01:53:29.336Z,2.00
2018-04-04T01:54:31.841Z,2.37
2018-04-04T01:55:34.347Z,1.87
2018-04-04T01:56:36.842Z,2.30
2018-04-04T01:57:39.329Z,2.90
2018-04-04T01:58:42.577Z,2.50
2018-04-04T01:59:45.080Z,2.25
2018-04-04T02:00:47.580Z,2.45
2018-04-04T02:01:50.062Z,2.33
2018-04-04T02:02:52.551Z,2.58
2018-04-04T02:03:55.045Z,2.47
2018-04-04T02:04:57.544Z,2.40
2018-04-04T02:06:00.790Z,2.62
2018-04-04T02:07:03.290Z,2.40
2018-04-04T02:08:06.562Z,2.45
2018-04-04T02:09:09.060Z,3.00
2018-04-04T02:10:12.322Z,2.78
2018-04-04T02:11:15.562Z,2.20
2018-04-04T02:12:18.063Z,2.75
2018-04-04T02:13:20.550Z,2.42
2018-04-04T02:14:23.024Z,2.65
2018-04-04T02:15:25.525Z,3.10
2018-04-04T02:16:28.787Z,2.90
2018-04-04T02:17:31.286Z,2.62
2018-04-04T02:18:33.873Z,3.20
2018-04-04T02:19:36.368Z,2.35
2018-04-04T02:20:38.867Z,3.08
2018-04-04T02:21:41.371Z,2.80
2018-04-04T02:22:43.855Z,2.80
2018-04-04T02:23:46.331Z,2.97
2018-04-04T02:24:48.821Z,3.08
2018-04-04T02:25:51.304Z,3.40
2018-04-04T02:26:53.790Z,2.85
2018-04-04T02:27:56.262Z,3.40
2018-04-04T02:28:58.766Z,3.62
2018-04-04T02:30:01.299Z,2.92
2018-04-04T02:31:03.802Z,3.15
2018-04-04T02:32:06.314Z,3.50
2018-04-04T02:33:08.806Z,3.30
2018-04-04T02:34:11.289Z,3.12
2018-04-04T02:35:14.569Z,3.53
2018-04-04T02:36:17.042Z,2.75
2018-04-04T02:37:19.552Z,3.37
2018-04-04T02:38:22.032Z,3.78
2018-04-04T02:39:24.527Z,3.30
2018-04-04T02:40:27.019Z,3.45
2018-04-04T02:41:29.512Z,3.58
2018-04-04T02:42:32.759Z,3.40
2018-04-04T02:43:36.062Z,4.22
2018-04-04T02:44:38.553Z,4.03
2018-04-04T02:45:41.805Z,3.70
2018-04-04T02:46:44.317Z,3.60
2018-04-04T02:47:47.582Z,4.30
2018-04-04T02:48:50.058Z,4.43
2018-04-04T02:49:53.339Z,4.43
2018-04-04T02:50:55.823Z,3.97
2018-04-04T02:51:59.082Z,4.30
2018-04-04T02:53:02.352Z,4.20
2018-04-04T02:54:04.835Z,4.40
2018-04-04T02:55:07.315Z,4.53
2018-04-04T02:56:09.798Z,4.20
2018-04-04T02:57:12.278Z,4.35
2018-04-04T02:58:15.537Z,3.78
2018-04-04T02:59:18.928Z,4.50
2018-04-04T03:00:22.915Z,3.95
2018-04-04T03:01:25.396Z,3.90
2018-04-04T03:02:27.884Z,4.20
2018-04-04T03:03:31.161Z,3.83
2018-04-04T03:04:33.650Z,3.95
2018-04-04T03:05:36.129Z,3.70
2018-04-04T03:06:39.379Z,4.68
2018-04-04T03:07:41.889Z,4.25
2018-04-04T03:08:45.146Z,4.28
2018-04-04T03:09:47.647Z,3.92
2018-04-04T03:10:50.896Z,4.47
2018-04-04T03:11:53.398Z,4.47
2018-04-04T03:12:56.668Z,4.82
2018-04-04T03:13:59.164Z,4.85
2018-04-04T03:15:02.411Z,4.80
2018-04-04T03:16:04.907Z,4.62
2018-04-04T03:17:07.387Z,4.62
2018-04-04T03:18:10.663Z,4.95
2018-04-04T03:19:13.170Z,4.62
2018-04-04T03:20:15.682Z,5.18
2018-04-04T03:21:18.166Z,4.93
2018-04-04T03:22:21.418Z,5.35
2018-04-04T03:23:23.922Z,5.80
2018-04-04T03:24:27.187Z,4.70
2018-04-04T03:25:30.337Z,5.60
2018-04-04T03:26:32.832Z,5.50
2018-04-04T03:27:35.338Z,5.68
2018-04-04T03:28:37.850Z,5.45
2018-04-04T03:29:40.343Z,5.97
2018-04-04T03:30:42.841Z,5.40
2018-04-04T03:31:45.358Z,5.30
2018-04-04T03:32:48.667Z,4.97
2018-04-04T03:33:51.165Z,5.40
2018-04-04T03:34:53.672Z,5.22
2018-04-04T03:35:56.919Z,5.25
2018-04-04T03:36:59.399Z,5.30
2018-04-04T03:38:02.641Z,5.03
2018-04-04T03:39:05.986Z,4.12
2018-04-04T03:40:09.247Z,5.35
2018-04-04T03:41:11.745Z,5.20
2018-04-04T03:42:14.290Z,4.60
2018-04-04T03:43:16.777Z,4.82
2018-04-04T03:44:19.272Z,4.50
2018-04-04T03:45:22.534Z,5.05
2018-04-04T03:46:25.014Z,5.30
2018-04-04T03:47:28.269Z,5.60
2018-04-04T03:48:30.761Z,4.93
2018-04-04T03:49:33.269Z,5.03
2018-04-04T03:50:35.757Z,5.05
2018-04-04T03:51:39.257Z,5.68
2018-04-04T03:52:41.761Z,4.60
2018-04-04T03:53:44.254Z,5.00
2018-04-04T03:54:47.526Z,4.68
2018-04-04T03:55:50.022Z,5.18
2018-04-04T03:56:53.271Z,5.68
2018-04-04T03:57:55.752Z,4.90
2018-04-04T03:58:58.240Z,4.57
2018-04-04T04:00:01.511Z,4.30
2018-04-04T04:01:04.010Z,5.05
2018-04-04T04:02:07.270Z,4.62
2018-04-04T04:03:10.948Z,5.00
2018-04-04T04:04:13.432Z,4.53
2018-04-04T04:05:15.927Z,4.40
2018-04-04T04:06:19.190Z,4.47
2018-04-04T04:07:21.672Z,4.28
2018-04-04T04:08:24.158Z,4.80
2018-04-04T04:09:27.429Z,4.50
2018-04-04T04:10:29.931Z,4.75
2018-04-04T04:11:32.415Z,4.97
2018-04-04T04:12:34.973Z,4.50
2018-04-04T04:13:37.497Z,4.10
2018-04-04T04:14:39.975Z,4.80
2018-04-04T04:15:42.464Z,4.50
2018-04-04T04:16:45.727Z,4.57
2018-04-04T04:17:48.223Z,4.32
2018-04-04T04:18:51.483Z,4.20
2018-04-04T04:19:53.997Z,4.35
2018-04-04T04:20:56.506Z,4.32
2018-04-04T04:21:58.986Z,4.20
2018-04-04T04:23:01.468Z,4.10
2018-04-04T04:24:04.719Z,4.50
2018-04-04T04:25:07.209Z,4.28
2018-04-04T04:26:09.779Z,4.03
2018-04-04T04:27:12.976Z,4.35
2018-04-04T04:28:15.487Z,3.97
2018-04-04T04:29:18.741Z,3.33
2018-04-04T04:30:21.227Z,3.95
2018-04-04T04:31:24.518Z,4.10
2018-04-04T04:32:26.995Z,4.47
2018-04-04T04:33:30.254Z,4.30
2018-04-04T04:34:32.736Z,4.00
2018-04-04T04:35:35.222Z,4.00
2018-04-04T04:36:38.486Z,4.62
2018-04-04T04:37:40.967Z,3.15
2018-04-04T04:38:44.221Z,4.05
2018-04-04T04:39:46.702Z,3.50
2018-04-04T04:40:49.189Z,4.22
2018-04-04T04:41:53.196Z,3.12
2018-04-04T04:42:55.677Z,3.55
2018-04-04T04:43:58.929Z,3.58
2018-04-04T04:45:02.023Z,3.47
2018-04-04T04:46:04.511Z,3.80
2018-04-04T04:47:07.010Z,4.60
2018-04-04T04:48:09.561Z,4.28
2018-04-04T04:49:12.816Z,4.32
2018-04-04T04:50:15.325Z,4.90
2018-04-04T04:51:18.572Z,4.68
2018-04-04T04:52:21.067Z,5.28
2018-04-04T04:53:24.326Z,4.10
2018-04-04T04:54:26.830Z,4.90
2018-04-04T04:55:30.091Z,4.95
2018-04-04T04:56:32.596Z,4.62
2018-04-04T04:57:35.095Z,4.80
2018-04-04T04:58:37.590Z,4.53
2018-04-04T04:59:40.070Z,4.30
2018-04-04T05:00:42.562Z,4.75
2018-04-04T05:01:45.059Z,4.53
2018-04-04T05:02:48.078Z,4.43
2018-04-04T05:03:50.568Z,4.85
2018-04-04T05:04:53.054Z,4.78
2018-04-04T05:05:55.531Z,4.65
2018-04-04T05:06:58.797Z,4.95
2018-04-04T05:08:01.299Z,5.15
2018-04-04T05:09:04.549Z,4.22
2018-04-04T05:10:07.034Z,3.95
2018-04-04T05:11:09.546Z,4.25
2018-04-04T05:12:12.075Z,4.30
2018-04-04T05:13:14.586Z,4.40
2018-04-04T05:14:17.089Z,4.75
2018-04-04T05:15:19.584Z,4.87
2018-04-04T05:16:22.076Z,4.20
2018-04-04T05:17:25.350Z,4.43
2018-04-04T05:18:28.645Z,4.00
2018-04-04T05:19:31.114Z,4.30
2018-04-04T05:20:34.368Z,4.37
2018-04-04T05:21:36.862Z,4.78
2018-04-04T05:22:40.734Z,3.92
2018-04-04T05:23:43.221Z,4.43
2018-04-04T05:24:45.703Z,4.55
2018-04-04T05:25:48.970Z,5.30
2018-04-04T05:26:51.453Z,4.60
2018-04-04T05:27:55.468Z,5.85
2018-04-04T05:28:58.723Z,5.45
2018-04-04T05:30:01.206Z,5.05
2018-04-04T05:31:03.728Z,4.15
2018-04-04T05:32:06.253Z,5.10
2018-04-04T05:33:09.529Z,4.07
2018-04-04T05:34:12.105Z,5.65
2018-04-04T05:35:14.586Z,6.32
2018-04-04T05:36:17.095Z,6.07
2018-04-04T05:37:19.588Z,6.97
2018-04-04T05:38:23.030Z,6.12
2018-04-04T05:39:26.295Z,6.78
2018-04-04T05:40:28.795Z,7.18
2018-04-04T05:41:32.068Z,7.28
2018-04-04T05:42:34.583Z,6.30
2018-04-04T05:43:37.090Z,6.60
2018-04-04T05:44:39.589Z,5.35
2018-04-04T05:45:42.864Z,5.80
2018-04-04T05:46:45.354Z,5.00
2018-04-04T05:47:48.688Z,5.07
2018-04-04T05:48:51.197Z,4.50
2018-04-04T05:49:53.690Z,4.35
2018-04-04T05:50:57.848Z,4.47
2018-04-04T05:52:00.356Z,3.40
2018-04-04T05:53:03.646Z,4.20
2018-04-04T05:54:06.911Z,3.70
2018-04-04T05:55:09.451Z,4.03
2018-04-04T05:56:11.949Z,2.90
2018-04-04T05:57:14.453Z,3.25
2018-04-04T05:58:17.726Z,3.15
2018-04-04T05:59:20.252Z,2.25
2018-04-04T06:00:22.724Z,2.62
2018-04-04T06:01:25.233Z,2.60
2018-04-04T06:02:27.716Z,2.53
2018-04-04T06:03:30.988Z,2.92
2018-04-04T06:04:33.484Z,2.33
2018-04-04T06:05:36.768Z,2.65
2018-04-04T06:06:40.013Z,2.70
2018-04-04T06:07:42.538Z,2.65
2018-04-04T06:08:45.065Z,2.30
2018-04-04T06:09:47.552Z,2.95
2018-04-04T06:10:50.044Z,2.47
2018-04-04T06:11:52.546Z,2.60
2018-04-04T06:12:55.051Z,2.25
2018-04-04T06:13:57.637Z,2.50
2018-04-04T06:15:00.094Z,2.30
2018-04-04T06:16:02.595Z,2.50
2018-04-04T06:17:05.855Z,2.95
2018-04-04T06:18:08.340Z,2.47
2018-04-04T06:19:11.645Z,2.37
2018-04-04T06:20:14.160Z,2.67
2018-04-04T06:21:17.887Z,2.28
2018-04-04T06:22:21.169Z,2.30
2018-04-04T06:23:24.458Z,2.20
2018-04-04T06:24:27.738Z,2.13
2018-04-04T06:25:30.270Z,2.10
2018-04-04T06:26:32.782Z,2.55
2018-04-04T06:27:35.271Z,2.65
2018-04-04T06:28:38.518Z,2.45
2018-04-04T06:29:41.031Z,2.28
2018-04-04T06:30:44.287Z,3.10
2018-04-04T06:31:46.830Z,2.67
2018-04-04T06:32:49.329Z,2.45
2018-04-04T06:33:51.874Z,2.25
2018-04-04T06:34:54.375Z,2.50
2018-04-04T06:35:56.873Z,2.40
2018-04-04T06:37:02.214Z,2.33
2018-04-04T06:38:05.479Z,2.58
2018-04-04T06:39:08.745Z,2.15
2018-04-04T06:40:11.268Z,2.60
2018-04-04T06:41:14.535Z,2.28
2018-04-04T06:42:17.796Z,2.53
2018-04-04T06:43:20.886Z,2.80
2018-04-04T06:44:23.410Z,2.37
2018-04-04T06:45:25.905Z,2.30
2018-04-04T06:46:28.392Z,2.40
2018-04-04T06:47:31.850Z,1.85
2018-04-04T06:48:34.352Z,2.37
2018-04-04T06:49:36.879Z,1.62
2018-04-04T06:50:39.383Z,2.20
2018-04-04T06:51:41.879Z,3.10
2018-04-04T06:52:45.909Z,2.10
2018-04-04T06:53:49.207Z,2.22
2018-04-04T06:54:51.711Z,2.30
2018-04-04T06:55:54.273Z,2.58
2018-04-04T06:56:57.543Z,2.33
2018-04-04T06:58:00.035Z,1.85
2018-04-04T06:59:02.542Z,2.58
2018-04-04T07:00:05.030Z,1.98
2018-04-04T07:01:08.302Z,1.80
2018-04-04T07:02:10.830Z,2.20
2018-04-04T07:03:13.336Z,2.03
2018-04-04T07:04:15.835Z,2.20
2018-04-04T07:05:19.090Z,2.15
2018-04-04T07:06:21.620Z,2.70
2018-04-04T07:07:24.177Z,2.50
2018-04-04T07:08:27.423Z,2.10
2018-04-04T07:09:29.933Z,1.83
2018-04-04T07:10:32.509Z,2.08
2018-04-04T07:11:34.994Z,1.70
2018-04-04T07:12:37.499Z,2.00
2018-04-04T07:13:40.020Z,2.28
2018-04-04T07:14:42.538Z,1.90
2018-04-04T07:15:45.052Z,3.10
2018-04-04T07:16:48.331Z,1.60
2018-04-04T07:17:51.582Z,2.30
2018-04-04T07:18:54.062Z,2.30
2018-04-04T07:19:56.603Z,2.05
2018-04-04T07:20:59.106Z,2.25
2018-04-04T07:22:01.602Z,2.30
2018-04-04T07:23:04.852Z,2.53
2018-04-04T07:24:08.112Z,2.25
2018-04-04T07:25:10.619Z,1.90
2018-04-04T07:26:13.158Z,2.65
2018-04-04T07:27:15.650Z,2.17
2018-04-04T07:28:18.162Z,2.33
2018-04-04T07:29:21.420Z,2.30
2018-04-04T07:30:23.914Z,2.33
2018-04-04T07:31:27.181Z,2.50
2018-04-04T07:32:29.695Z,2.42
2018-04-04T07:33:32.210Z,2.10
2018-04-04T07:34:34.708Z,2.30
2018-04-04T07:35:37.969Z,2.78
2018-04-04T07:36:40.460Z,2.67
2018-04-04T07:37:42.959Z,2.28
2018-04-04T07:38:46.306Z,2.30
2018-04-04T07:39:48.806Z,2.83
2018-04-04T07:40:52.089Z,2.10
2018-04-04T07:41:55.354Z,2.12
2018-04-04T07:42:57.845Z,2.25
2018-04-04T07:44:01.111Z,2.72
2018-04-04T07:45:03.624Z,2.55
2018-04-04T07:46:06.142Z,1.90
2018-04-04T07:47:08.632Z,2.87
2018-04-04T07:48:11.138Z,2.00
2018-04-04T07:49:13.634Z,2.15
2018-04-04T07:50:16.186Z,2.50
2018-04-04T07:51:18.681Z,2.35
2018-04-04T07:52:21.183Z,1.98
2018-04-04T07:53:23.690Z,2.12
2018-04-04T07:54:26.184Z,2.25
2018-04-04T07:55:28.682Z,2.53
2018-04-04T07:56:31.185Z,2.75
2018-04-04T07:57:34.435Z,2.12
2018-04-04T07:58:36.928Z,2.12
2018-04-04T07:59:40.229Z,2.62
2018-04-04T08:00:43.486Z,2.17
2018-04-04T08:01:45.993Z,2.53
2018-04-04T08:02:49.273Z,2.70
2018-04-04T08:03:52.537Z,2.22
2018-04-04T08:04:55.015Z,3.10
2018-04-04T08:05:57.542Z,3.15
2018-04-04T08:07:00.074Z,2.28
2018-04-04T08:08:03.331Z,2.67
2018-04-04T08:09:06.686Z,2.33
2018-04-04T08:10:09.182Z,2.35
2018-04-04T08:11:11.668Z,2.37
2018-04-04T08:12:14.198Z,2.92
2018-04-04T08:13:16.695Z,2.35
2018-04-04T08:14:19.193Z,2.15
2018-04-04T08:15:22.458Z,2.40
2018-04-04T08:16:24.963Z,1.83
2018-04-04T08:17:28.231Z,2.33
2018-04-04T08:18:30.727Z,2.00
2018-04-04T08:19:34.019Z,1.65
2018-04-04T08:20:36.547Z,2.00
2018-04-04T08:21:39.062Z,2.40
2018-04-04T08:22:41.555Z,2.10
2018-04-04T08:23:44.069Z,2.00
2018-04-04T08:24:46.596Z,1.73
2018-04-04T08:25:49.096Z,2.40
2018-04-04T08:26:51.630Z,1.98
2018-04-04T08:27:54.259Z,1.45
2018-04-04T08:28:56.703Z,1.70
2018-04-04T08:29:59.195Z,1.70
2018-04-04T08:31:01.721Z,1.73
2018-04-04T08:32:04.221Z,1.45
2018-04-04T08:33:06.723Z,2.00
2018-04-04T08:34:10.086Z,1.70
2018-04-04T08:35:12.580Z,2.05
2018-04-04T08:36:15.838Z,1.77
2018-04-04T08:37:18.345Z,1.95
2018-04-04T08:38:21.613Z,1.80
2018-04-04T08:39:24.916Z,1.80
2018-04-04T08:40:28.173Z,1.80
2018-04-04T08:41:30.673Z,2.55
2018-04-04T08:42:33.924Z,1.85
2018-04-04T08:43:36.423Z,1.50
2018-04-04T08:44:38.957Z,1.80
2018-04-04T08:45:41.505Z,2.30
2018-04-04T08:46:44.004Z,1.98
2018-04-04T08:47:46.499Z,1.77
2018-04-04T08:48:49.003Z,1.75
2018-04-04T08:49:51.522Z,1.87
2018-04-04T08:50:54.027Z,1.60
2018-04-04T08:51:57.289Z,1.52
2018-04-04T08:52:59.807Z,2.05
2018-04-04T08:54:02.320Z,1.50
2018-04-04T08:55:04.817Z,2.05
2018-04-04T08:56:08.091Z,1.70
2018-04-04T08:57:10.711Z,1.77
2018-04-04T08:58:13.944Z,1.75
2018-04-04T08:59:16.460Z,2.40
2018-04-04T09:00:18.973Z,1.92
2018-04-04T09:01:21.465Z,1.80
2018-04-04T09:02:23.954Z,2.40
2018-04-04T09:03:27.215Z,1.95
2018-04-04T09:04:29.705Z,1.83
2018-04-04T09:05:33.011Z,2.15
2018-04-04T09:06:35.553Z,1.80
2018-04-04T09:07:38.818Z,1.70
2018-04-04T09:08:41.314Z,1.90
2018-04-04T09:09:43.805Z,1.95
2018-04-04T09:10:48.068Z,1.35
2018-04-04T09:11:50.578Z,1.80
2018-04-04T09:12:53.847Z,2.40
2018-04-04T09:13:56.335Z,1.40
2018-04-04T09:14:59.586Z,1.62
2018-04-04T09:16:02.106Z,1.50
2018-04-04T09:17:05.401Z,1.98
2018-04-04T09:18:07.898Z,1.40
2018-04-04T09:19:10.439Z,1.90
2018-04-04T09:20:13.124Z,2.10
2018-04-04T09:21:16.001Z,2.05
2018-04-04T09:22:18.492Z,1.58
2018-04-04T09:23:21.019Z,2.15
2018-04-04T09:24:24.292Z,1.70
2018-04-04T09:25:26.788Z,1.60
2018-04-04T09:26:29.306Z,1.50
2018-04-04T09:27:31.803Z,1.42
2018-04-04T09:28:35.808Z,1.77
2018-04-04T09:29:38.913Z,2.30
2018-04-04T09:30:42.169Z,1.83
2018-04-04T09:31:46.675Z,1.65
2018-04-04T09:32:49.160Z,2.10
2018-04-04T09:33:51.655Z,1.45
2018-04-04T09:34:54.967Z,1.87
2018-04-04T09:35:57.452Z,1.70
2018-04-04T09:36:59.960Z,1.70
2018-04-04T09:38:02.478Z,1.98
2018-04-04T09:39:05.880Z,2.03
2018-04-04T09:40:08.393Z,1.40
2018-04-04T09:41:10.919Z,1.60
2018-04-04T09:42:13.430Z,1.50
2018-04-04T09:43:15.925Z,2.20
2018-04-04T09:44:19.179Z,1.75
2018-04-04T09:45:21.688Z,1.60
2018-04-04T09:46:24.951Z,1.75
2018-04-04T09:47:27.447Z,1.42
2018-04-04T09:48:30.723Z,1.65
2018-04-04T09:49:34.154Z,1.55
2018-04-04T09:50:36.666Z,1.50
2018-04-04T09:51:39.193Z,1.87
2018-04-04T09:52:41.695Z,1.83
2018-04-04T09:53:44.206Z,1.83
2018-04-04T09:54:47.475Z,1.37
2018-04-04T09:55:49.995Z,1.42
2018-04-04T09:56:52.525Z,1.92
2018-04-04T09:57:55.052Z,1.30
2018-04-04T09:58:57.545Z,1.42
2018-04-04T10:00:00.047Z,1.70
2018-04-04T10:01:05.323Z,1.85
2018-04-04T10:02:13.542Z,1.80
2018-04-04T10:03:16.053Z,1.70
2018-04-04T10:04:19.301Z,1.87
2018-04-04T10:05:21.802Z,1.52
2018-04-04T10:06:24.323Z,1.70
2018-04-04T10:07:26.831Z,1.48
2018-04-04T10:08:29.345Z,1.30
2018-04-04T10:09:31.848Z,1.90
2018-04-04T10:10:34.383Z,2.58
2018-04-04T10:11:36.877Z,2.78
2018-04-04T10:12:39.373Z,3.90
2018-04-04T10:13:41.872Z,2.30
2018-04-04T10:14:45.142Z,2.55
2018-04-04T10:15:47.650Z,1.85
2018-04-04T10:16:50.161Z,1.80
2018-04-04T10:17:52.690Z,1.87
2018-04-04T10:18:55.203Z,1.83
2018-04-04T10:19:57.722Z,1.70
2018-04-04T10:21:00.997Z,1.60
2018-04-04T10:22:04.300Z,1.60
2018-04-04T10:23:06.822Z,1.45
2018-04-04T10:24:09.344Z,1.85
2018-04-04T10:25:12.639Z,1.90
2018-04-04T10:26:15.168Z,1.62
2018-04-04T10:27:17.664Z,1.60
2018-04-04T10:28:20.954Z,1.50
2018-04-04T10:29:24.219Z,1.52
2018-04-04T10:30:26.731Z,2.40
2018-04-04T10:31:29.234Z,1.50
2018-04-04T10:32:31.743Z,1.70
2018-04-04T10:33:35.165Z,1.92
2018-04-04T10:34:37.681Z,1.90
2018-04-04T10:35:40.187Z,2.10
2018-04-04T10:36:43.460Z,1.60
2018-04-04T10:37:45.943Z,1.77
2018-04-04T10:38:49.230Z,1.55
2018-04-04T10:39:52.554Z,1.67
2018-04-04T10:40:55.061Z,1.50
2018-04-04T10:41:57.551Z,1.48
2018-04-04T10:43:00.851Z,1.70
2018-04-04T10:44:04.147Z,1.80
2018-04-04T10:45:07.429Z,1.87
2018-04-04T10:46:10.715Z,1.15
2018-04-04T10:47:14.021Z,1.83
2018-04-04T10:48:16.510Z,1.12
2018-04-04T10:49:19.453Z,1.30
2018-04-04T10:50:22.019Z,1.40
2018-04-04T10:51:25.257Z,1.40
2018-04-04T10:52:27.763Z,1.60
2018-04-04T10:53:31.043Z,1.40
2018-04-04T10:54:33.573Z,1.62
2018-04-04T10:55:36.074Z,1.45
2018-04-04T10:56:38.553Z,1.52
2018-04-04T10:57:41.068Z,1.40
2018-04-04T10:58:43.633Z,1.40
2018-04-04T10:59:47.022Z,1.58
2018-04-04T11:00:50.288Z,1.70
2018-04-04T11:01:52.803Z,1.67
2018-04-04T11:02:55.302Z,1.70
2018-04-04T11:03:57.817Z,1.40
2018-04-04T11:05:01.094Z,1.20
2018-04-04T11:06:04.382Z,1.52
2018-04-04T11:07:07.664Z,1.62
2018-04-04T11:08:10.927Z,1.23
2018-04-04T11:09:13.426Z,1.42
2018-04-04T11:10:16.739Z,1.30
2018-04-04T11:11:19.251Z,1.55
2018-04-04T11:12:21.776Z,1.35
2018-04-04T11:13:25.027Z,1.20
2018-04-04T11:14:27.549Z,1.40
2018-04-04T11:15:30.966Z,1.30
2018-04-04T11:16:33.472Z,1.33
2018-04-04T11:17:35.981Z,1.60
2018-04-04T11:18:38.474Z,1.30
2018-04-04T11:19:40.981Z,1.40
2018-04-04T11:20:43.484Z,1.35
2018-04-04T11:21:46.002Z,1.48
2018-04-04T11:22:48.507Z,1.50
2018-04-04T11:23:51.875Z,1.42
2018-04-04T11:24:54.383Z,1.60
2018-04-04T11:25:56.939Z,1.60
2018-04-04T11:27:00.191Z,1.40
2018-04-04T11:28:02.705Z,1.52
2018-04-04T11:29:05.977Z,1.98
2018-04-04T11:30:08.476Z,1.30
2018-04-04T11:31:11.074Z,1.67
2018-04-04T11:32:13.586Z,1.42
2018-04-04T11:33:16.097Z,1.30
2018-04-04T11:34:18.607Z,1.12
2018-04-04T11:35:21.140Z,1.75
2018-04-04T11:36:23.662Z,1.67
2018-04-04T11:37:27.664Z,1.40
2018-04-04T11:38:30.225Z,1.40
2018-04-04T11:39:32.737Z,1.55
2018-04-04T11:40:36.011Z,1.42
2018-04-04T11:41:38.537Z,1.50
2018-04-04T11:42:41.033Z,1.33
2018-04-04T11:43:43.590Z,1.50
2018-04-04T11:44:46.100Z,1.40
2018-04-04T11:45:49.362Z,1.60
2018-04-04T11:46:51.886Z,1.70
2018-04-04T11:47:54.366Z,1.60
2018-04-04T11:48:56.882Z,1.90
2018-04-04T11:49:59.395Z,1.60
2018-04-04T11:51:01.931Z,1.75
2018-04-04T11:52:05.225Z,1.60
2018-04-04T11:53:07.731Z,1.33
2018-04-04T11:54:10.281Z,1.50
2018-04-04T11:55:13.550Z,1.95
2018-04-04T11:56:16.107Z,1.60
2018-04-04T11:57:19.600Z,1.90
2018-04-04T11:58:22.110Z,1.48
2018-04-04T11:59:24.612Z,1.52
2018-04-04T12:00:27.132Z,1.50
2018-04-04T12:01:30.406Z,1.50
2018-04-04T12:02:33.733Z,1.33
2018-04-04T12:03:36.214Z,1.33
2018-04-04T12:04:38.707Z,1.40
2018-04-04T12:05:41.236Z,1.27
2018-04-04T12:06:43.746Z,1.50
2018-04-04T12:07:46.269Z,2.00
2018-04-04T12:08:49.534Z,1.50
2018-04-04T12:09:52.043Z,1.65
2018-04-04T12:10:54.558Z,1.20
2018-04-04T12:11:57.087Z,1.30
2018-04-04T12:12:59.601Z,1.48
2018-04-04T12:14:03.201Z,1.23
2018-04-04T12:15:05.682Z,1.25
2018-04-04T12:16:08.184Z,1.15
2018-04-04T12:17:11.482Z,1.35
2018-04-04T12:18:14.042Z,1.30
2018-04-04T12:19:17.317Z,1.20
2018-04-04T12:20:20.598Z,1.10
2018-04-04T12:21:23.103Z,1.50
2018-04-04T12:22:25.596Z,1.33
2018-04-04T12:23:28.128Z,1.45
2018-04-04T12:24:31.396Z,1.55
2018-04-04T12:25:35.597Z,1.20
2018-04-04T12:26:38.106Z,1.50
2018-04-04T12:27:40.608Z,1.10
2018-04-04T12:28:43.133Z,1.10
2018-04-04T12:29:46.388Z,1.00
2018-04-04T12:30:48.888Z,1.10
2018-04-04T12:31:52.167Z,1.37
2018-04-04T12:32:54.681Z,1.12
2018-04-04T12:33:57.198Z,1.00
2018-04-04T12:34:59.704Z,1.27
2018-04-04T12:36:02.237Z,1.12
2018-04-04T12:37:06.289Z,1.23
2018-04-04T12:38:08.774Z,1.23
2018-04-04T12:39:11.299Z,1.83
2018-04-04T12:40:13.828Z,1.20
2018-04-04T12:41:16.330Z,1.40
2018-04-04T12:42:18.835Z,1.30
2018-04-04T12:43:21.358Z,1.35
2018-04-04T12:44:23.854Z,1.75
2018-04-04T12:45:27.168Z,1.30
2018-04-04T12:46:29.684Z,1.55
2018-04-04T12:47:32.312Z,1.30
2018-04-04T12:48:34.823Z,1.30
2018-04-04T12:49:37.350Z,1.65
2018-04-04T12:50:39.859Z,1.17
2018-04-04T12:51:42.378Z,1.40
2018-04-04T12:52:45.676Z,1.40
2018-04-04T12:53:48.213Z,1.40
2018-04-04T12:54:50.749Z,1.55
2018-04-04T12:55:53.238Z,1.37
2018-04-04T12:56:55.720Z,1.12
2018-04-04T12:57:58.223Z,1.50
2018-04-04T12:59:00.776Z,1.50
2018-04-04T13:00:03.322Z,1.23
2018-04-04T13:01:05.833Z,1.25
2018-04-04T13:02:09.147Z,1.35
2018-04-04T13:03:12.384Z,1.73
2018-04-04T13:04:14.892Z,1.05
2018-04-04T13:05:17.442Z,1.48
2018-04-04T13:06:20.699Z,1.37
2018-04-04T13:07:23.211Z,1.48
2018-04-04T13:08:26.473Z,1.80
2018-04-04T13:09:28.969Z,1.25
2018-04-04T13:10:32.273Z,1.30
2018-04-04T13:11:34.773Z,1.65
2018-04-04T13:12:43.325Z,1.25
2018-04-04T13:13:45.832Z,1.35
2018-04-04T13:14:48.353Z,1.35
2018-04-04T13:15:51.641Z,1.50
2018-04-04T13:16:54.150Z,1.45
2018-04-04T13:17:56.730Z,1.30
2018-04-04T13:18:59.182Z,1.73
2018-04-04T13:20:02.435Z,1.33
2018-04-04T13:21:04.956Z,1.30
2018-04-04T13:22:07.479Z,1.30
2018-04-04T13:23:10.047Z,1.30
2018-04-04T13:24:12.575Z,1.52
2018-04-04T13:25:15.122Z,1.30
2018-04-04T13:26:17.590Z,1.58
2018-04-04T13:27:20.838Z,1.65
2018-04-04T13:28:23.336Z,1.40
2018-04-04T13:29:26.587Z,1.30
2018-04-04T13:30:29.090Z,1.50
2018-04-04T13:31:31.614Z,1.30
2018-04-04T13:32:34.111Z,1.45
2018-04-04T13:33:36.611Z,1.50
2018-04-04T13:34:39.884Z,1.42
2018-04-04T13:35:42.396Z,1.50
2018-04-04T13:36:44.896Z,2.00
2018-04-04T13:37:47.403Z,1.35
2018-04-04T13:38:49.898Z,1.70
2018-04-04T13:39:52.407Z,1.30
2018-04-04T13:40:54.901Z,1.48
2018-04-04T13:41:57.425Z,1.48
2018-04-04T13:42:59.929Z,1.52
2018-04-04T13:44:02.437Z,1.40
2018-04-04T13:45:05.695Z,1.40
2018-04-04T13:46:08.211Z,1.60
2018-04-04T13:47:10.759Z,1.60
2018-04-04T13:48:14.482Z,1.45
2018-04-04T13:49:16.979Z,1.60
2018-04-04T13:50:19.503Z,1.65
2018-04-04T13:51:22.755Z,1.70
2018-04-04T13:52:25.282Z,1.70
2018-04-04T13:53:27.793Z,1.50
2018-04-04T13:54:30.291Z,1.40
2018-04-04T13:55:32.798Z,1.45